sensor_id;sensor_type;location;lat;lon;timestamp;P1;durP1;ratioP1;P2;durP2;ratioP2
55993;SDS011;67425;52.126;20.638;2023-10-13T00:02:05;21.83;;;7.47;;
55993;SDS011;67425;52.126;20.638;2023-10-13T00:04:31;18.73;;;7.68;;
55993;SDS011;67425;52.126;20.638;2023-10-13T00:07:01;23.42;;;9.85;;
55993;SDS011;67425;52.126;20.638;2023-10-13T00:09:27;18.83;;;8.73;;
55993;SDS011;67425;52.126;20.638;2023-10-13T00:12:02;25.90;;;9.55;;
55993;SDS011;67425;52.126;20.638;2023-10-13T00:14:30;20.25;;;9.13;;
55993;SDS011;67425;52.126;20.638;2023-10-13T00:17:05;30.13;;;11.13;;
55993;SDS011;67425;52.126;20.638;2023-10-13T00:19:41;24.73;;;10.15;;
55993;SDS011;67425;52.126;20.638;2023-10-13T00:22:10;28.88;;;11.40;;
55993;SDS011;67425;52.126;20.638;2023-10-13T00:24:37;23.83;;;9.90;;
55993;SDS011;67425;52.126;20.638;2023-10-13T00:27:16;29.30;;;11.70;;
55993;SDS011;67425;52.126;20.638;2023-10-13T00:30:04;30.45;;;12.20;;
55993;SDS011;67425;52.126;20.638;2023-10-13T00:32:57;31.77;;;11.30;;
55993;SDS011;67425;52.126;20.638;2023-10-13T00:35:23;34.28;;;12.52;;
55993;SDS011;67425;52.126;20.638;2023-10-13T00:37:57;28.83;;;12.25;;
55993;SDS011;67425;52.126;20.638;2023-10-13T00:40:24;23.05;;;11.20;;
55993;SDS011;67425;52.126;20.638;2023-10-13T00:42:58;25.40;;;10.63;;
55993;SDS011;67425;52.126;20.638;2023-10-13T00:45:44;31.40;;;11.05;;
55993;SDS011;67425;52.126;20.638;2023-10-13T00:48:13;26.77;;;10.05;;
55993;SDS011;67425;52.126;20.638;2023-10-13T00:50:39;36.08;;;12.68;;
55993;SDS011;67425;52.126;20.638;2023-10-13T00:53:05;26.90;;;10.85;;
55993;SDS011;67425;52.126;20.638;2023-10-13T00:55:32;28.50;;;11.50;;
55993;SDS011;67425;52.126;20.638;2023-10-13T00:58:02;28.08;;;11.43;;
55993;SDS011;67425;52.126;20.638;2023-10-13T01:00:31;27.85;;;11.93;;
55993;SDS011;67425;52.126;20.638;2023-10-13T01:02:57;29.48;;;11.57;;
55993;SDS011;67425;52.126;20.638;2023-10-13T01:05:30;27.35;;;10.65;;
55993;SDS011;67425;52.126;20.638;2023-10-13T01:07:59;27.27;;;10.88;;
55993;SDS011;67425;52.126;20.638;2023-10-13T01:10:26;36.78;;;11.95;;
55993;SDS011;67425;52.126;20.638;2023-10-13T01:12:53;31.67;;;10.15;;
55993;SDS011;67425;52.126;20.638;2023-10-13T01:15:19;33.10;;;12.27;;
55993;SDS011;67425;52.126;20.638;2023-10-13T01:17:47;36.95;;;12.55;;
55993;SDS011;67425;52.126;20.638;2023-10-13T01:20:14;26.30;;;12.02;;
55993;SDS011;67425;52.126;20.638;2023-10-13T01:22:46;40.60;;;12.93;;
55993;SDS011;67425;52.126;20.638;2023-10-13T01:25:21;33.58;;;12.88;;
55993;SDS011;67425;52.126;20.638;2023-10-13T01:27:52;33.28;;;13.07;;
55993;SDS011;67425;52.126;20.638;2023-10-13T01:30:18;45.63;;;15.00;;
55993;SDS011;67425;52.126;20.638;2023-10-13T01:32:51;44.63;;;13.85;;
55993;SDS011;67425;52.126;20.638;2023-10-13T01:35:19;44.08;;;15.35;;
55993;SDS011;67425;52.126;20.638;2023-10-13T01:37:49;45.88;;;15.57;;
55993;SDS011;67425;52.126;20.638;2023-10-13T01:40:15;47.15;;;14.70;;
55993;SDS011;67425;52.126;20.638;2023-10-13T01:42:44;57.38;;;17.33;;
55993;SDS011;67425;52.126;20.638;2023-10-13T01:45:10;76.05;;;21.67;;
55993;SDS011;67425;52.126;20.638;2023-10-13T01:47:39;74.75;;;19.88;;
55993;SDS011;67425;52.126;20.638;2023-10-13T01:50:05;57.45;;;18.73;;
55993;SDS011;67425;52.126;20.638;2023-10-13T01:52:44;51.08;;;17.20;;
55993;SDS011;67425;52.126;20.638;2023-10-13T01:55:09;57.22;;;16.88;;
55993;SDS011;67425;52.126;20.638;2023-10-13T01:57:36;57.80;;;18.05;;
55993;SDS011;67425;52.126;20.638;2023-10-13T02:00:02;50.53;;;16.60;;
55993;SDS011;67425;52.126;20.638;2023-10-13T02:02:36;50.85;;;16.90;;
55993;SDS011;67425;52.126;20.638;2023-10-13T02:05:03;47.38;;;16.60;;
55993;SDS011;67425;52.126;20.638;2023-10-13T02:07:28;49.25;;;18.55;;
55993;SDS011;67425;52.126;20.638;2023-10-13T02:09:59;43.45;;;14.77;;
55993;SDS011;67425;52.126;20.638;2023-10-13T02:12:29;37.38;;;13.82;;
55993;SDS011;67425;52.126;20.638;2023-10-13T02:15:02;34.72;;;13.20;;
55993;SDS011;67425;52.126;20.638;2023-10-13T02:17:29;29.48;;;12.30;;
55993;SDS011;67425;52.126;20.638;2023-10-13T02:20:05;26.92;;;10.43;;
55993;SDS011;67425;52.126;20.638;2023-10-13T02:22:33;21.30;;;9.88;;
55993;SDS011;67425;52.126;20.638;2023-10-13T02:24:58;23.95;;;11.48;;
55993;SDS011;67425;52.126;20.638;2023-10-13T02:27:26;26.02;;;10.70;;
55993;SDS011;67425;52.126;20.638;2023-10-13T02:29:52;30.20;;;11.43;;
55993;SDS011;67425;52.126;20.638;2023-10-13T02:32:23;30.25;;;10.77;;
55993;SDS011;67425;52.126;20.638;2023-10-13T02:34:49;32.28;;;12.48;;
55993;SDS011;67425;52.126;20.638;2023-10-13T02:37:14;28.33;;;11.90;;
55993;SDS011;67425;52.126;20.638;2023-10-13T02:39:41;23.58;;;10.43;;
55993;SDS011;67425;52.126;20.638;2023-10-13T02:42:07;27.67;;;10.23;;
55993;SDS011;67425;52.126;20.638;2023-10-13T02:44:36;30.45;;;10.55;;
55993;SDS011;67425;52.126;20.638;2023-10-13T02:47:04;21.55;;;10.05;;
55993;SDS011;67425;52.126;20.638;2023-10-13T02:49:38;23.77;;;11.25;;
55993;SDS011;67425;52.126;20.638;2023-10-13T02:52:07;25.88;;;10.07;;
55993;SDS011;67425;52.126;20.638;2023-10-13T02:54:34;22.00;;;9.30;;
55993;SDS011;67425;52.126;20.638;2023-10-13T02:57:05;29.23;;;9.65;;
55993;SDS011;67425;52.126;20.638;2023-10-13T02:59:31;18.73;;;8.13;;
55993;SDS011;67425;52.126;20.638;2023-10-13T03:02:05;25.52;;;8.95;;
55993;SDS011;67425;52.126;20.638;2023-10-13T03:04:44;25.80;;;8.60;;
55993;SDS011;67425;52.126;20.638;2023-10-13T03:07:11;17.92;;;7.88;;
55993;SDS011;67425;52.126;20.638;2023-10-13T03:09:40;22.02;;;9.23;;
55993;SDS011;67425;52.126;20.638;2023-10-13T03:12:14;22.42;;;8.77;;
55993;SDS011;67425;52.126;20.638;2023-10-13T03:14:40;19.52;;;9.85;;
55993;SDS011;67425;52.126;20.638;2023-10-13T03:17:05;23.15;;;9.75;;
55993;SDS011;67425;52.126;20.638;2023-10-13T03:19:31;19.27;;;10.43;;
55993;SDS011;67425;52.126;20.638;2023-10-13T03:22:02;20.67;;;9.27;;
55993;SDS011;67425;52.126;20.638;2023-10-13T03:24:38;17.10;;;8.38;;
55993;SDS011;67425;52.126;20.638;2023-10-13T03:27:10;19.50;;;8.30;;
55993;SDS011;67425;52.126;20.638;2023-10-13T03:29:37;20.02;;;8.60;;
55993;SDS011;67425;52.126;20.638;2023-10-13T03:32:19;15.27;;;8.70;;
55993;SDS011;67425;52.126;20.638;2023-10-13T03:34:46;20.08;;;8.35;;
55993;SDS011;67425;52.126;20.638;2023-10-13T03:37:24;20.60;;;8.32;;
55993;SDS011;67425;52.126;20.638;2023-10-13T03:40:11;17.45;;;7.78;;
55993;SDS011;67425;52.126;20.638;2023-10-13T03:45:34;18.67;;;7.40;;
55993;SDS011;67425;52.126;20.638;2023-10-13T03:48:15;21.48;;;8.98;;
55993;SDS011;67425;52.126;20.638;2023-10-13T03:50:51;22.85;;;11.48;;
55993;SDS011;67425;52.126;20.638;2023-10-13T03:53:27;18.13;;;7.82;;
55993;SDS011;67425;52.126;20.638;2023-10-13T03:55:58;16.05;;;7.90;;
55993;SDS011;67425;52.126;20.638;2023-10-13T03:58:36;15.15;;;8.10;;
55993;SDS011;67425;52.126;20.638;2023-10-13T04:01:10;14.43;;;7.88;;
55993;SDS011;67425;52.126;20.638;2023-10-13T04:03:39;14.20;;;6.70;;
55993;SDS011;67425;52.126;20.638;2023-10-13T04:06:21;13.25;;;7.25;;
55993;SDS011;67425;52.126;20.638;2023-10-13T04:09:06;17.77;;;6.75;;
55993;SDS011;67425;52.126;20.638;2023-10-13T04:17:10;16.10;;;6.32;;
55993;SDS011;67425;52.126;20.638;2023-10-13T04:19:47;15.85;;;6.15;;
55993;SDS011;67425;52.126;20.638;2023-10-13T04:22:32;18.98;;;5.78;;
55993;SDS011;67425;52.126;20.638;2023-10-13T04:27:56;14.50;;;6.22;;
55993;SDS011;67425;52.126;20.638;2023-10-13T04:30:49;11.45;;;5.80;;
55993;SDS011;67425;52.126;20.638;2023-10-13T04:33:22;16.88;;;6.53;;
55993;SDS011;67425;52.126;20.638;2023-10-13T04:38:39;14.07;;;5.63;;
55993;SDS011;67425;52.126;20.638;2023-10-13T04:41:20;15.18;;;6.35;;
55993;SDS011;67425;52.126;20.638;2023-10-13T04:43:48;15.05;;;6.25;;
55993;SDS011;67425;52.126;20.638;2023-10-13T04:46:37;14.63;;;5.97;;
55993;SDS011;67425;52.126;20.638;2023-10-13T04:49:22;14.43;;;6.43;;
55993;SDS011;67425;52.126;20.638;2023-10-13T04:51:56;22.13;;;6.28;;
55993;SDS011;67425;52.126;20.638;2023-10-13T04:54:26;23.00;;;6.78;;
55993;SDS011;67425;52.126;20.638;2023-10-13T04:57:16;14.57;;;5.57;;
55993;SDS011;67425;52.126;20.638;2023-10-13T04:59:44;17.25;;;6.75;;
55993;SDS011;67425;52.126;20.638;2023-10-13T05:02:43;28.25;;;6.45;;
55993;SDS011;67425;52.126;20.638;2023-10-13T05:05:22;19.13;;;7.60;;
55993;SDS011;67425;52.126;20.638;2023-10-13T05:07:50;19.92;;;6.70;;
55993;SDS011;67425;52.126;20.638;2023-10-13T05:16:02;14.93;;;6.37;;
55993;SDS011;67425;52.126;20.638;2023-10-13T05:21:30;9.68;;;5.53;;
55993;SDS011;67425;52.126;20.638;2023-10-13T05:26:58;13.73;;;6.18;;
55993;SDS011;67425;52.126;20.638;2023-10-13T05:29:42;20.33;;;6.05;;
55993;SDS011;67425;52.126;20.638;2023-10-13T05:32:28;15.88;;;5.88;;
55993;SDS011;67425;52.126;20.638;2023-10-13T05:35:12;22.60;;;6.68;;
55993;SDS011;67425;52.126;20.638;2023-10-13T05:37:57;14.45;;;6.28;;
55993;SDS011;67425;52.126;20.638;2023-10-13T05:43:55;18.92;;;6.40;;
55993;SDS011;67425;52.126;20.638;2023-10-13T05:46:39;9.95;;;5.72;;
55993;SDS011;67425;52.126;20.638;2023-10-13T05:49:05;23.20;;;7.35;;
55993;SDS011;67425;52.126;20.638;2023-10-13T05:51:54;10.85;;;5.95;;
55993;SDS011;67425;52.126;20.638;2023-10-13T05:54:43;10.18;;;5.72;;
55993;SDS011;67425;52.126;20.638;2023-10-13T05:57:27;17.35;;;6.13;;
55993;SDS011;67425;52.126;20.638;2023-10-13T06:00:11;11.30;;;5.38;;
55993;SDS011;67425;52.126;20.638;2023-10-13T06:03:06;18.95;;;5.78;;
55993;SDS011;67425;52.126;20.638;2023-10-13T06:05:51;11.43;;;5.47;;
55993;SDS011;67425;52.126;20.638;2023-10-13T06:08:34;12.40;;;5.65;;
55993;SDS011;67425;52.126;20.638;2023-10-13T06:14:02;18.80;;;5.63;;
55993;SDS011;67425;52.126;20.638;2023-10-13T06:16:46;26.35;;;7.15;;
55993;SDS011;67425;52.126;20.638;2023-10-13T06:19:30;9.07;;;4.70;;
55993;SDS011;67425;52.126;20.638;2023-10-13T06:24:58;18.83;;;6.13;;
55993;SDS011;67425;52.126;20.638;2023-10-13T06:27:41;15.82;;;4.85;;
55993;SDS011;67425;52.126;20.638;2023-10-13T06:30:26;13.65;;;4.82;;
55993;SDS011;67425;52.126;20.638;2023-10-13T06:32:51;12.48;;;4.88;;
55993;SDS011;67425;52.126;20.638;2023-10-13T06:35:18;17.88;;;4.90;;
55993;SDS011;67425;52.126;20.638;2023-10-13T06:37:44;6.20;;;3.95;;
55993;SDS011;67425;52.126;20.638;2023-10-13T06:40:10;16.80;;;4.63;;
55993;SDS011;67425;52.126;20.638;2023-10-13T06:42:46;22.58;;;5.22;;
55993;SDS011;67425;52.126;20.638;2023-10-13T06:45:11;19.38;;;3.70;;
55993;SDS011;67425;52.126;20.638;2023-10-13T06:47:37;9.40;;;3.92;;
55993;SDS011;67425;52.126;20.638;2023-10-13T06:50:07;12.43;;;3.83;;
55993;SDS011;67425;52.126;20.638;2023-10-13T06:52:49;14.15;;;4.10;;
55993;SDS011;67425;52.126;20.638;2023-10-13T06:55:16;12.30;;;4.13;;
55993;SDS011;67425;52.126;20.638;2023-10-13T06:57:51;16.90;;;4.35;;
55993;SDS011;67425;52.126;20.638;2023-10-13T07:00:17;11.63;;;3.92;;
55993;SDS011;67425;52.126;20.638;2023-10-13T07:02:58;22.33;;;5.30;;
55993;SDS011;67425;52.126;20.638;2023-10-13T07:05:50;25.40;;;4.45;;
55993;SDS011;67425;52.126;20.638;2023-10-13T07:08:17;15.70;;;4.97;;
55993;SDS011;67425;52.126;20.638;2023-10-13T07:10:51;10.98;;;3.90;;
55993;SDS011;67425;52.126;20.638;2023-10-13T07:13:43;14.15;;;4.03;;
55993;SDS011;67425;52.126;20.638;2023-10-13T07:16:15;11.70;;;3.83;;
55993;SDS011;67425;52.126;20.638;2023-10-13T07:18:40;11.60;;;3.80;;
55993;SDS011;67425;52.126;20.638;2023-10-13T07:21:17;17.25;;;3.63;;
55993;SDS011;67425;52.126;20.638;2023-10-13T07:23:58;22.05;;;4.43;;
55993;SDS011;67425;52.126;20.638;2023-10-13T07:26:33;18.20;;;4.10;;
55993;SDS011;67425;52.126;20.638;2023-10-13T07:28:59;11.15;;;3.33;;
55993;SDS011;67425;52.126;20.638;2023-10-13T07:31:25;11.40;;;3.22;;
55993;SDS011;67425;52.126;20.638;2023-10-13T07:33:52;13.13;;;3.78;;
55993;SDS011;67425;52.126;20.638;2023-10-13T07:36:29;14.45;;;3.28;;
55993;SDS011;67425;52.126;20.638;2023-10-13T07:39:04;14.23;;;4.35;;
55993;SDS011;67425;52.126;20.638;2023-10-13T07:41:50;10.20;;;3.35;;
55993;SDS011;67425;52.126;20.638;2023-10-13T07:44:19;15.63;;;4.03;;
55993;SDS011;67425;52.126;20.638;2023-10-13T07:46:49;23.13;;;3.90;;
55993;SDS011;67425;52.126;20.638;2023-10-13T07:49:23;8.60;;;2.92;;
55993;SDS011;67425;52.126;20.638;2023-10-13T07:51:55;15.00;;;3.33;;
55993;SDS011;67425;52.126;20.638;2023-10-13T07:54:25;15.55;;;3.78;;
55993;SDS011;67425;52.126;20.638;2023-10-13T07:56:51;14.20;;;3.55;;
55993;SDS011;67425;52.126;20.638;2023-10-13T07:59:20;11.07;;;4.28;;
55993;SDS011;67425;52.126;20.638;2023-10-13T08:01:47;12.57;;;3.45;;
55993;SDS011;67425;52.126;20.638;2023-10-13T08:04:21;23.00;;;3.83;;
55993;SDS011;67425;52.126;20.638;2023-10-13T08:06:53;14.00;;;3.72;;
55993;SDS011;67425;52.126;20.638;2023-10-13T08:09:27;12.93;;;3.95;;
55993;SDS011;67425;52.126;20.638;2023-10-13T08:11:57;18.40;;;4.00;;
55993;SDS011;67425;52.126;20.638;2023-10-13T08:14:22;16.75;;;3.92;;
55993;SDS011;67425;52.126;20.638;2023-10-13T08:16:48;12.15;;;5.50;;
55993;SDS011;67425;52.126;20.638;2023-10-13T08:19:14;8.98;;;4.10;;
55993;SDS011;67425;52.126;20.638;2023-10-13T08:21:44;19.95;;;4.03;;
55993;SDS011;67425;52.126;20.638;2023-10-13T08:24:45;11.73;;;3.95;;
55993;SDS011;67425;52.126;20.638;2023-10-13T08:27:12;14.82;;;4.28;;
55993;SDS011;67425;52.126;20.638;2023-10-13T08:29:57;13.38;;;4.85;;
55993;SDS011;67425;52.126;20.638;2023-10-13T08:32:22;11.52;;;4.53;;
55993;SDS011;67425;52.126;20.638;2023-10-13T08:34:58;12.80;;;4.13;;
55993;SDS011;67425;52.126;20.638;2023-10-13T08:37:28;12.75;;;5.50;;
55993;SDS011;67425;52.126;20.638;2023-10-13T08:39:58;19.85;;;4.95;;
55993;SDS011;67425;52.126;20.638;2023-10-13T08:42:45;20.38;;;4.70;;
55993;SDS011;67425;52.126;20.638;2023-10-13T08:45:11;21.90;;;4.88;;
55993;SDS011;67425;52.126;20.638;2023-10-13T08:47:53;18.80;;;5.07;;
55993;SDS011;67425;52.126;20.638;2023-10-13T08:50:35;8.65;;;3.58;;
55993;SDS011;67425;52.126;20.638;2023-10-13T08:53:24;18.00;;;3.90;;
55993;SDS011;67425;52.126;20.638;2023-10-13T08:58:47;7.90;;;3.58;;
55993;SDS011;67425;52.126;20.638;2023-10-13T09:04:08;14.35;;;4.05;;
55993;SDS011;67425;52.126;20.638;2023-10-13T09:06:44;9.05;;;3.38;;
55993;SDS011;67425;52.126;20.638;2023-10-13T09:09:25;8.93;;;2.95;;
55993;SDS011;67425;52.126;20.638;2023-10-13T09:14:43;13.93;;;4.03;;
55993;SDS011;67425;52.126;20.638;2023-10-13T09:17:22;17.40;;;4.03;;
55993;SDS011;67425;52.126;20.638;2023-10-13T09:25:34;11.85;;;3.97;;
55993;SDS011;67425;52.126;20.638;2023-10-13T09:28:27;11.60;;;3.97;;
55993;SDS011;67425;52.126;20.638;2023-10-13T09:30:54;10.55;;;3.70;;
55993;SDS011;67425;52.126;20.638;2023-10-13T09:33:24;15.65;;;4.82;;
55993;SDS011;67425;52.126;20.638;2023-10-13T09:36:15;15.35;;;4.43;;
55993;SDS011;67425;52.126;20.638;2023-10-13T09:38:44;23.63;;;4.45;;
55993;SDS011;67425;52.126;20.638;2023-10-13T09:41:30;12.32;;;4.38;;
55993;SDS011;67425;52.126;20.638;2023-10-13T09:43:57;11.18;;;4.60;;
55993;SDS011;67425;52.126;20.638;2023-10-13T09:46:23;10.13;;;5.28;;
55993;SDS011;67425;52.126;20.638;2023-10-13T09:48:54;15.38;;;4.25;;
55993;SDS011;67425;52.126;20.638;2023-10-13T09:51:39;15.10;;;5.10;;
55993;SDS011;67425;52.126;20.638;2023-10-13T09:54:25;17.95;;;4.70;;
55993;SDS011;67425;52.126;20.638;2023-10-13T09:57:12;17.63;;;5.22;;
55993;SDS011;67425;52.126;20.638;2023-10-13T09:59:46;22.75;;;5.65;;
55993;SDS011;67425;52.126;20.638;2023-10-13T10:02:17;14.18;;;4.78;;
55993;SDS011;67425;52.126;20.638;2023-10-13T10:04:56;19.33;;;4.60;;
55993;SDS011;67425;52.126;20.638;2023-10-13T10:07:37;9.82;;;4.70;;
55993;SDS011;67425;52.126;20.638;2023-10-13T10:10:04;14.93;;;5.85;;
55993;SDS011;67425;52.126;20.638;2023-10-13T10:15:34;15.40;;;5.60;;
55993;SDS011;67425;52.126;20.638;2023-10-13T10:18:17;18.38;;;5.28;;
55993;SDS011;67425;52.126;20.638;2023-10-13T10:20:47;15.15;;;5.38;;
55993;SDS011;67425;52.126;20.638;2023-10-13T10:23:26;13.10;;;5.35;;
55993;SDS011;67425;52.126;20.638;2023-10-13T10:26:13;26.48;;;6.15;;
55993;SDS011;67425;52.126;20.638;2023-10-13T10:28:41;14.90;;;5.50;;
55993;SDS011;67425;52.126;20.638;2023-10-13T10:31:09;12.40;;;5.07;;
55993;SDS011;67425;52.126;20.638;2023-10-13T10:33:37;14.30;;;5.30;;
55993;SDS011;67425;52.126;20.638;2023-10-13T10:36:04;16.38;;;5.25;;
55993;SDS011;67425;52.126;20.638;2023-10-13T10:38:30;15.65;;;5.38;;
55993;SDS011;67425;52.126;20.638;2023-10-13T10:40:57;13.93;;;5.20;;
55993;SDS011;67425;52.126;20.638;2023-10-13T10:43:37;16.00;;;5.43;;
55993;SDS011;67425;52.126;20.638;2023-10-13T10:49:05;15.50;;;5.68;;
55993;SDS011;67425;52.126;20.638;2023-10-13T10:51:33;15.88;;;5.80;;
55993;SDS011;67425;52.126;20.638;2023-10-13T10:54:08;20.10;;;7.00;;
55993;SDS011;67425;52.126;20.638;2023-10-13T10:56:43;18.63;;;5.72;;
55993;SDS011;67425;52.126;20.638;2023-10-13T10:59:08;12.27;;;5.18;;
55993;SDS011;67425;52.126;20.638;2023-10-13T11:01:43;15.90;;;5.32;;
55993;SDS011;67425;52.126;20.638;2023-10-13T11:04:12;11.57;;;4.70;;
55993;SDS011;67425;52.126;20.638;2023-10-13T11:06:48;14.07;;;5.65;;
55993;SDS011;67425;52.126;20.638;2023-10-13T11:09:23;11.40;;;4.55;;
55993;SDS011;67425;52.126;20.638;2023-10-13T11:11:51;10.18;;;4.47;;
55993;SDS011;67425;52.126;20.638;2023-10-13T11:14:21;17.40;;;5.22;;
55993;SDS011;67425;52.126;20.638;2023-10-13T11:16:52;13.38;;;4.80;;
55993;SDS011;67425;52.126;20.638;2023-10-13T11:19:22;15.25;;;4.53;;
55993;SDS011;67425;52.126;20.638;2023-10-13T11:22:09;15.73;;;5.25;;
55993;SDS011;67425;52.126;20.638;2023-10-13T11:24:41;14.18;;;4.93;;
55993;SDS011;67425;52.126;20.638;2023-10-13T11:27:14;11.18;;;4.35;;
55993;SDS011;67425;52.126;20.638;2023-10-13T11:29:46;11.45;;;5.53;;
55993;SDS011;67425;52.126;20.638;2023-10-13T11:32:17;7.68;;;4.38;;
55993;SDS011;67425;52.126;20.638;2023-10-13T11:34:45;16.80;;;4.80;;
55993;SDS011;67425;52.126;20.638;2023-10-13T11:37:16;11.38;;;5.00;;
55993;SDS011;67425;52.126;20.638;2023-10-13T11:40:02;10.52;;;4.57;;
55993;SDS011;67425;52.126;20.638;2023-10-13T11:42:34;15.20;;;4.97;;
55993;SDS011;67425;52.126;20.638;2023-10-13T11:45:01;14.65;;;4.28;;
55993;SDS011;67425;52.126;20.638;2023-10-13T11:47:46;10.32;;;4.35;;
55993;SDS011;67425;52.126;20.638;2023-10-13T11:50:25;8.07;;;4.43;;
55993;SDS011;67425;52.126;20.638;2023-10-13T11:53:00;15.88;;;5.60;;
55993;SDS011;67425;52.126;20.638;2023-10-13T11:55:25;12.98;;;5.55;;
55993;SDS011;67425;52.126;20.638;2023-10-13T11:57:51;14.88;;;4.25;;
55993;SDS011;67425;52.126;20.638;2023-10-13T12:00:16;22.35;;;4.90;;
55993;SDS011;67425;52.126;20.638;2023-10-13T12:03:11;9.30;;;4.72;;
55993;SDS011;67425;52.126;20.638;2023-10-13T12:05:55;8.27;;;4.68;;
55993;SDS011;67425;52.126;20.638;2023-10-13T12:08:39;21.75;;;6.28;;
55993;SDS011;67425;52.126;20.638;2023-10-13T12:11:14;17.88;;;5.60;;
55993;SDS011;67425;52.126;20.638;2023-10-13T12:13:55;9.05;;;5.50;;
55993;SDS011;67425;52.126;20.638;2023-10-13T12:16:21;13.93;;;5.68;;
55993;SDS011;67425;52.126;20.638;2023-10-13T12:18:47;18.42;;;5.55;;
55993;SDS011;67425;52.126;20.638;2023-10-13T12:21:18;16.80;;;5.93;;
55993;SDS011;67425;52.126;20.638;2023-10-13T12:23:47;14.23;;;5.68;;
55993;SDS011;67425;52.126;20.638;2023-10-13T12:26:12;13.73;;;5.07;;
55993;SDS011;67425;52.126;20.638;2023-10-13T12:28:57;14.82;;;5.28;;
55993;SDS011;67425;52.126;20.638;2023-10-13T12:31:32;19.73;;;5.60;;
55993;SDS011;67425;52.126;20.638;2023-10-13T12:33:58;19.75;;;6.40;;
55993;SDS011;67425;52.126;20.638;2023-10-13T12:36:31;13.27;;;5.57;;
55993;SDS011;67425;52.126;20.638;2023-10-13T12:39:06;15.55;;;6.13;;
55993;SDS011;67425;52.126;20.638;2023-10-13T12:41:32;9.20;;;5.40;;
55993;SDS011;67425;52.126;20.638;2023-10-13T12:44:15;26.10;;;7.38;;
55993;SDS011;67425;52.126;20.638;2023-10-13T12:46:59;16.73;;;6.32;;
55993;SDS011;67425;52.126;20.638;2023-10-13T12:49:43;15.68;;;7.03;;
55993;SDS011;67425;52.126;20.638;2023-10-13T12:52:22;17.80;;;6.05;;
55993;SDS011;67425;52.126;20.638;2023-10-13T12:54:51;14.55;;;4.90;;
55993;SDS011;67425;52.126;20.638;2023-10-13T12:57:25;13.90;;;5.18;;
55993;SDS011;67425;52.126;20.638;2023-10-13T12:59:52;11.70;;;5.72;;
55993;SDS011;67425;52.126;20.638;2023-10-13T13:02:21;19.33;;;5.35;;
55993;SDS011;67425;52.126;20.638;2023-10-13T13:04:47;11.02;;;6.30;;
55993;SDS011;67425;52.126;20.638;2023-10-13T13:07:19;22.63;;;6.07;;
55993;SDS011;67425;52.126;20.638;2023-10-13T13:09:45;13.73;;;6.18;;
55993;SDS011;67425;52.126;20.638;2023-10-13T13:12:10;8.75;;;5.47;;
55993;SDS011;67425;52.126;20.638;2023-10-13T13:14:38;20.05;;;5.78;;
55993;SDS011;67425;52.126;20.638;2023-10-13T13:17:09;12.13;;;5.97;;
55993;SDS011;67425;52.126;20.638;2023-10-13T13:19:35;17.30;;;6.25;;
55993;SDS011;67425;52.126;20.638;2023-10-13T13:22:04;18.42;;;6.20;;
55993;SDS011;67425;52.126;20.638;2023-10-13T13:24:30;26.20;;;5.85;;
55993;SDS011;67425;52.126;20.638;2023-10-13T13:26:56;12.77;;;5.63;;
55993;SDS011;67425;52.126;20.638;2023-10-13T13:29:28;17.42;;;6.22;;
55993;SDS011;67425;52.126;20.638;2023-10-13T13:31:54;18.23;;;6.15;;
55993;SDS011;67425;52.126;20.638;2023-10-13T13:34:20;16.33;;;5.22;;
55993;SDS011;67425;52.126;20.638;2023-10-13T13:36:46;19.65;;;6.13;;
55993;SDS011;67425;52.126;20.638;2023-10-13T13:39:17;16.45;;;5.60;;
55993;SDS011;67425;52.126;20.638;2023-10-13T13:41:53;11.25;;;6.10;;
55993;SDS011;67425;52.126;20.638;2023-10-13T13:44:21;11.43;;;6.25;;
55993;SDS011;67425;52.126;20.638;2023-10-13T13:46:55;14.63;;;5.70;;
55993;SDS011;67425;52.126;20.638;2023-10-13T13:49:21;15.43;;;5.20;;
55993;SDS011;67425;52.126;20.638;2023-10-13T13:51:54;18.85;;;6.43;;
55993;SDS011;67425;52.126;20.638;2023-10-13T13:54:20;14.40;;;5.97;;
55993;SDS011;67425;52.126;20.638;2023-10-13T13:56:46;9.20;;;5.70;;
55993;SDS011;67425;52.126;20.638;2023-10-13T13:59:12;17.42;;;5.75;;
55993;SDS011;67425;52.126;20.638;2023-10-13T14:01:41;11.73;;;6.20;;
55993;SDS011;67425;52.126;20.638;2023-10-13T14:04:09;18.60;;;7.20;;
55993;SDS011;67425;52.126;20.638;2023-10-13T14:06:35;19.02;;;6.40;;
55993;SDS011;67425;52.126;20.638;2023-10-13T14:09:02;15.55;;;6.43;;
55993;SDS011;67425;52.126;20.638;2023-10-13T14:11:31;18.58;;;6.45;;
55993;SDS011;67425;52.126;20.638;2023-10-13T14:14:06;23.60;;;6.35;;
55993;SDS011;67425;52.126;20.638;2023-10-13T14:16:50;16.08;;;6.60;;
55993;SDS011;67425;52.126;20.638;2023-10-13T14:19:16;15.73;;;6.68;;
55993;SDS011;67425;52.126;20.638;2023-10-13T14:21:54;21.60;;;7.05;;
55993;SDS011;67425;52.126;20.638;2023-10-13T14:24:20;21.63;;;7.47;;
55993;SDS011;67425;52.126;20.638;2023-10-13T14:26:59;13.88;;;7.47;;
55993;SDS011;67425;52.126;20.638;2023-10-13T14:29:35;25.50;;;7.97;;
55993;SDS011;67425;52.126;20.638;2023-10-13T14:32:10;12.40;;;6.57;;
55993;SDS011;67425;52.126;20.638;2023-10-13T14:34:43;17.20;;;6.95;;
55993;SDS011;67425;52.126;20.638;2023-10-13T14:37:10;22.40;;;7.55;;
55993;SDS011;67425;52.126;20.638;2023-10-13T14:39:39;28.27;;;7.88;;
55993;SDS011;67425;52.126;20.638;2023-10-13T14:42:05;28.45;;;7.97;;
55993;SDS011;67425;52.126;20.638;2023-10-13T14:44:33;22.13;;;6.65;;
55993;SDS011;67425;52.126;20.638;2023-10-13T14:46:59;14.13;;;6.78;;
55993;SDS011;67425;52.126;20.638;2023-10-13T14:49:26;22.15;;;7.35;;
55993;SDS011;67425;52.126;20.638;2023-10-13T14:51:51;17.52;;;6.72;;
55993;SDS011;67425;52.126;20.638;2023-10-13T14:54:17;17.45;;;6.68;;
55993;SDS011;67425;52.126;20.638;2023-10-13T14:56:50;15.73;;;6.90;;
55993;SDS011;67425;52.126;20.638;2023-10-13T14:59:19;19.17;;;7.47;;
55993;SDS011;67425;52.126;20.638;2023-10-13T15:01:47;18.27;;;7.70;;
55993;SDS011;67425;52.126;20.638;2023-10-13T15:04:14;24.38;;;6.43;;
55993;SDS011;67425;52.126;20.638;2023-10-13T15:06:39;20.17;;;7.20;;
55993;SDS011;67425;52.126;20.638;2023-10-13T15:09:05;18.77;;;7.38;;
55993;SDS011;67425;52.126;20.638;2023-10-13T15:11:35;11.93;;;7.47;;
55993;SDS011;67425;52.126;20.638;2023-10-13T15:14:04;19.67;;;7.63;;
55993;SDS011;67425;52.126;20.638;2023-10-13T15:16:33;15.88;;;7.03;;
55993;SDS011;67425;52.126;20.638;2023-10-13T15:18:59;21.52;;;7.97;;
55993;SDS011;67425;52.126;20.638;2023-10-13T15:21:26;28.30;;;7.60;;
55993;SDS011;67425;52.126;20.638;2023-10-13T15:23:59;17.83;;;8.85;;
55993;SDS011;67425;52.126;20.638;2023-10-13T15:26:29;17.63;;;7.60;;
55993;SDS011;67425;52.126;20.638;2023-10-13T15:28:55;20.67;;;7.85;;
55993;SDS011;67425;52.126;20.638;2023-10-13T15:31:25;19.50;;;7.63;;
55993;SDS011;67425;52.126;20.638;2023-10-13T15:33:52;16.38;;;8.48;;
55993;SDS011;67425;52.126;20.638;2023-10-13T15:36:23;17.33;;;8.43;;
55993;SDS011;67425;52.126;20.638;2023-10-13T15:38:49;14.57;;;8.70;;
55993;SDS011;67425;52.126;20.638;2023-10-13T15:41:22;16.90;;;8.63;;
55993;SDS011;67425;52.126;20.638;2023-10-13T15:43:49;15.63;;;8.88;;
55993;SDS011;67425;52.126;20.638;2023-10-13T15:46:18;21.48;;;8.57;;
55993;SDS011;67425;52.126;20.638;2023-10-13T15:48:47;19.60;;;8.97;;